createdAt,value
2017-12-17T00:01:28.444Z,12.83
2017-12-17T00:03:57.385Z,12.37
2017-12-17T00:06:26.381Z,12.40
2017-12-17T00:08:55.381Z,12.40
2017-12-17T00:11:24.319Z,11.67
2017-12-17T00:13:53.937Z,11.27
2017-12-17T00:16:22.807Z,11.53
2017-12-17T00:18:51.773Z,11.27
2017-12-17T00:21:21.173Z,11.37
2017-12-17T00:23:50.041Z,11.50
2017-12-17T00:26:18.905Z,11.73
2017-12-17T00:28:47.752Z,12.10
2017-12-17T00:31:16.631Z,11.23
2017-12-17T00:33:45.524Z,11.20
2017-12-17T00:36:14.381Z,10.90
2017-12-17T00:38:43.257Z,11.07
2017-12-17T00:41:12.219Z,12.37
2017-12-17T00:43:41.081Z,11.73
2017-12-17T00:46:09.929Z,11.73
2017-12-17T00:48:39.491Z,10.60
2017-12-17T00:51:08.892Z,11.43
2017-12-17T00:53:37.851Z,10.27
2017-12-17T00:56:06.747Z,11.97
2017-12-17T00:58:35.585Z,11.03
2017-12-17T01:01:04.445Z,11.13
2017-12-17T01:03:33.397Z,11.03
2017-12-17T01:06:02.255Z,11.20
2017-12-17T01:08:31.095Z,11.43
2017-12-17T01:10:59.959Z,11.47
2017-12-17T01:13:28.807Z,11.10
2017-12-17T01:15:57.643Z,11.07
2017-12-17T01:18:26.539Z,11.43
2017-12-17T01:20:55.383Z,11.37
2017-12-17T01:23:25.035Z,10.90
2017-12-17T01:25:53.927Z,10.40
2017-12-17T01:28:22.769Z,11.07
2017-12-17T01:30:51.609Z,10.27
2017-12-17T01:33:20.477Z,10.47
2017-12-17T01:35:49.903Z,10.57
2017-12-17T01:38:19.765Z,10.73
2017-12-17T01:40:48.638Z,10.53
2017-12-17T01:43:17.483Z,10.87
2017-12-17T01:45:46.394Z,10.87
2017-12-17T01:48:15.307Z,11.37
2017-12-17T01:50:44.331Z,11.27
2017-12-17T01:53:13.213Z,11.27
2017-12-17T01:55:42.134Z,11.37
2017-12-17T01:58:10.985Z,11.57
2017-12-17T02:00:39.838Z,11.27
2017-12-17T02:03:08.711Z,12.80
2017-12-17T02:05:37.557Z,11.70
2017-12-17T02:08:06.401Z,10.73
2017-12-17T02:10:35.272Z,11.80
2017-12-17T02:13:04.122Z,11.23
2017-12-17T02:15:32.975Z,11.87
2017-12-17T02:18:01.863Z,11.63
2017-12-17T02:20:30.785Z,10.93
2017-12-17T02:22:59.633Z,12.23
2017-12-17T02:25:28.505Z,10.67
2017-12-17T02:27:57.367Z,10.47
2017-12-17T02:30:26.205Z,11.03
2017-12-17T02:32:55.101Z,11.37
2017-12-17T02:35:23.952Z,11.73
2017-12-17T02:37:52.821Z,11.80
2017-12-17T02:40:22.703Z,11.17
2017-12-17T02:42:51.576Z,10.63
2017-12-17T02:45:20.403Z,11.47
2017-12-17T02:47:49.285Z,10.67
2017-12-17T02:50:18.327Z,11.40
2017-12-17T02:52:47.194Z,10.87
2017-12-17T02:55:16.091Z,11.33
2017-12-17T02:57:44.941Z,11.67
2017-12-17T03:00:13.791Z,11.60
2017-12-17T03:02:42.667Z,12.93
2017-12-17T03:05:11.532Z,13.63
2017-12-17T03:07:40.435Z,13.20
2017-12-17T03:10:09.308Z,13.07
2017-12-17T03:12:38.155Z,13.77
2017-12-17T03:15:07.051Z,13.23
2017-12-17T03:17:36.326Z,12.90
2017-12-17T03:20:05.177Z,13.03
2017-12-17T03:22:34.035Z,12.47
2017-12-17T03:25:03.545Z,12.27
2017-12-17T03:27:32.449Z,12.67
2017-12-17T03:30:01.296Z,11.70
2017-12-17T03:32:30.189Z,12.50
2017-12-17T03:34:59.045Z,12.60
2017-12-17T03:37:27.921Z,11.63
2017-12-17T03:39:56.798Z,12.40
2017-12-17T03:42:25.639Z,12.70
2017-12-17T03:44:54.541Z,12.73
2017-12-17T03:47:23.455Z,12.60
2017-12-17T03:49:52.303Z,12.80
2017-12-17T03:52:21.150Z,13.60
2017-12-17T03:54:50.093Z,12.97
2017-12-17T03:57:18.953Z,13.23
2017-12-17T03:59:47.787Z,13.70
2017-12-17T04:02:16.718Z,13.80
2017-12-17T04:04:45.565Z,15.50
2017-12-17T04:07:14.428Z,14.57
2017-12-17T04:09:43.311Z,14.33
2017-12-17T04:12:12.145Z,13.67
2017-12-17T04:14:41.257Z,14.67
2017-12-17T04:17:10.122Z,14.63
2017-12-17T04:19:38.974Z,15.80
2017-12-17T04:22:07.815Z,15.03
2017-12-17T04:24:36.743Z,14.97
2017-12-17T04:27:05.597Z,15.03
2017-12-17T04:29:34.443Z,15.70
2017-12-17T04:32:03.315Z,15.93
2017-12-17T04:34:32.152Z,15.10
2017-12-17T04:37:01.344Z,14.77
2017-12-17T04:39:30.214Z,16.00
2017-12-17T04:41:59.070Z,15.30
2017-12-17T04:44:27.914Z,16.13
2017-12-17T04:46:56.807Z,14.73
2017-12-17T04:49:25.651Z,15.87
2017-12-17T04:51:54.483Z,16.40
2017-12-17T04:54:23.524Z,16.00
2017-12-17T04:56:52.369Z,17.67
2017-12-17T04:59:21.239Z,16.87
2017-12-17T05:01:50.107Z,17.63
2017-12-17T05:04:18.970Z,18.83
2017-12-17T05:06:47.830Z,17.13
2017-12-17T05:09:16.731Z,17.10
2017-12-17T05:11:45.584Z,18.37
2017-12-17T05:14:14.522Z,16.90
2017-12-17T05:16:43.420Z,16.17
2017-12-17T05:19:12.257Z,18.47
2017-12-17T05:21:41.105Z,16.27
2017-12-17T05:24:09.988Z,18.10
2017-12-17T05:26:38.860Z,18.53
2017-12-17T05:29:07.693Z,17.83
2017-12-17T05:31:36.614Z,17.57
2017-12-17T05:34:05.480Z,16.97
2017-12-17T05:36:34.328Z,18.70
2017-12-17T05:39:03.839Z,17.20
2017-12-17T05:41:32.729Z,17.67
2017-12-17T05:44:01.579Z,17.70
2017-12-17T05:46:30.693Z,18.97
2017-12-17T05:49:00.090Z,18.13
2017-12-17T05:51:28.946Z,18.60
2017-12-17T05:53:57.812Z,19.60
2017-12-17T05:56:26.654Z,19.67
2017-12-17T05:58:55.543Z,19.43
2017-12-17T06:01:24.451Z,17.80
2017-12-17T06:03:53.311Z,19.13
2017-12-17T06:06:22.153Z,19.40
2017-12-17T06:08:51.039Z,18.63
2017-12-17T06:11:19.879Z,18.77
2017-12-17T06:13:48.709Z,20.23
2017-12-17T06:16:17.890Z,20.30
2017-12-17T06:18:46.745Z,18.23
2017-12-17T06:21:15.586Z,20.07
2017-12-17T06:23:44.479Z,19.70
2017-12-17T06:26:13.304Z,19.10
2017-12-17T06:28:42.178Z,18.93
2017-12-17T06:31:11.061Z,20.77
2017-12-17T06:33:39.977Z,20.27
2017-12-17T06:36:08.831Z,19.57
2017-12-17T06:38:37.719Z,19.37
2017-12-17T06:41:07.353Z,16.43
2017-12-17T06:43:36.879Z,18.37
2017-12-17T06:46:05.727Z,18.83
2017-12-17T06:48:34.579Z,19.33
2017-12-17T06:51:03.484Z,18.07
2017-12-17T06:53:32.381Z,18.67
2017-12-17T06:56:01.271Z,22.13
2017-12-17T06:58:30.165Z,23.70
2017-12-17T07:00:59.071Z,22.40
2017-12-17T07:03:27.931Z,20.83
2017-12-17T07:05:57.239Z,20.33
2017-12-17T07:08:26.139Z,19.70
2017-12-17T07:10:55.479Z,21.17
2017-12-17T07:13:24.380Z,20.47
2017-12-17T07:15:53.237Z,21.10
2017-12-17T07:18:22.103Z,20.40
2017-12-17T07:20:50.969Z,21.70
2017-12-17T07:23:19.834Z,20.63
2017-12-17T07:25:48.715Z,21.93
2017-12-17T07:28:17.583Z,22.40
2017-12-17T07:30:47.145Z,20.73
2017-12-17T07:33:16.018Z,22.07
2017-12-17T07:35:45.753Z,23.60
2017-12-17T07:38:14.665Z,23.10
2017-12-17T07:40:43.592Z,24.47
2017-12-17T07:43:13.295Z,24.67
2017-12-17T07:45:42.475Z,23.27
2017-12-17T07:48:11.369Z,26.37
2017-12-17T07:50:40.251Z,26.63
2017-12-17T07:53:09.094Z,29.33
2017-12-17T07:55:38.009Z,26.67
2017-12-17T07:58:06.882Z,29.60
2017-12-17T08:00:35.728Z,30.07
2017-12-17T08:03:04.595Z,27.17
2017-12-17T08:05:34.051Z,29.00
2017-12-17T08:08:03.603Z,28.53
2017-12-17T08:10:32.513Z,31.83
2017-12-17T08:13:01.375Z,31.47
2017-12-17T08:15:30.289Z,33.93
2017-12-17T08:17:59.159Z,37.53
2017-12-17T08:20:28.005Z,32.97
2017-12-17T08:22:56.873Z,33.47
2017-12-17T08:25:25.711Z,37.77
2017-12-17T08:27:54.607Z,38.30
2017-12-17T08:30:25.173Z,31.67
2017-12-17T08:32:54.055Z,30.73
2017-12-17T08:35:22.897Z,29.93
2017-12-17T08:37:51.791Z,30.90
2017-12-17T08:40:20.664Z,32.33
2017-12-17T08:42:49.553Z,36.50
2017-12-17T08:45:18.547Z,29.53
2017-12-17T08:47:47.425Z,35.53
2017-12-17T08:50:16.294Z,30.53
2017-12-17T08:52:45.139Z,26.10
2017-12-17T08:55:14.110Z,32.30
2017-12-17T08:57:43.886Z,34.00
2017-12-17T09:00:12.737Z,32.40
2017-12-17T09:02:43.223Z,29.87
2017-12-17T09:05:12.103Z,28.50
2017-12-17T09:07:41.011Z,32.50
2017-12-17T09:10:09.895Z,36.30
2017-12-17T09:12:38.755Z,29.87
2017-12-17T09:15:08.161Z,31.43
2017-12-17T09:17:37.515Z,33.90
2017-12-17T09:20:06.475Z,30.60
2017-12-17T09:22:35.331Z,33.17
2017-12-17T09:25:04.205Z,34.10
2017-12-17T09:27:33.061Z,35.97
2017-12-17T09:30:01.913Z,28.70
2017-12-17T09:32:30.817Z,38.13
2017-12-17T09:34:59.756Z,33.27
2017-12-17T09:37:28.611Z,37.37
2017-12-17T09:39:57.509Z,36.47
2017-12-17T09:42:26.371Z,27.83
2017-12-17T09:44:55.211Z,58.03
2017-12-17T09:47:24.147Z,35.80
2017-12-17T09:49:53.026Z,33.17
2017-12-17T09:52:21.875Z,32.43
2017-12-17T09:54:50.749Z,38.07
2017-12-17T09:57:19.597Z,30.83
2017-12-17T09:59:48.493Z,35.40
2017-12-17T10:02:18.273Z,37.60
2017-12-17T10:04:47.123Z,32.80
2017-12-17T10:07:16.098Z,44.63
2017-12-17T10:09:44.987Z,31.17
2017-12-17T10:12:13.850Z,30.97
2017-12-17T10:14:42.695Z,48.27
2017-12-17T10:17:11.607Z,36.33
2017-12-17T10:19:40.503Z,32.40
2017-12-17T10:22:09.379Z,35.13
2017-12-17T10:24:38.263Z,33.47
2017-12-17T10:27:07.122Z,38.60
2017-12-17T10:29:36.883Z,30.17
2017-12-17T10:32:06.483Z,35.27
2017-12-17T10:34:35.336Z,29.43
2017-12-17T10:37:04.187Z,30.90
2017-12-17T10:39:33.181Z,33.73
2017-12-17T10:42:02.075Z,31.53
2017-12-17T10:44:30.943Z,33.93
2017-12-17T10:46:59.850Z,34.23
2017-12-17T10:49:28.717Z,41.23
2017-12-17T10:51:57.595Z,43.17
2017-12-17T10:54:26.509Z,32.43
2017-12-17T10:56:55.395Z,30.80
2017-12-17T10:59:24.235Z,33.77
2017-12-17T11:01:53.099Z,31.40
2017-12-17T11:04:21.935Z,30.67
2017-12-17T11:06:50.788Z,30.63
2017-12-17T11:09:19.648Z,32.30
2017-12-17T11:11:48.536Z,31.63
2017-12-17T11:14:17.447Z,31.70
2017-12-17T11:16:46.314Z,31.50
2017-12-17T11:19:15.155Z,30.63
2017-12-17T11:21:43.989Z,29.87
2017-12-17T11:24:12.859Z,29.13
2017-12-17T11:26:42.085Z,26.07
2017-12-17T11:29:10.940Z,26.17
2017-12-17T11:31:39.825Z,22.70
2017-12-17T11:34:08.695Z,21.53
2017-12-17T11:36:37.547Z,19.50
2017-12-17T11:39:06.477Z,14.80
2017-12-17T11:41:35.363Z,11.37
2017-12-17T11:44:04.239Z,12.03
2017-12-17T11:46:33.112Z,11.10
2017-12-17T11:49:01.957Z,11.23
2017-12-17T11:51:30.865Z,9.23
2017-12-17T11:54:00.322Z,9.07
2017-12-17T11:56:29.181Z,8.83
2017-12-17T11:58:58.049Z,8.83
2017-12-17T12:01:26.921Z,10.37
2017-12-17T12:03:55.771Z,8.20
2017-12-17T12:06:24.631Z,7.83
2017-12-17T12:08:53.533Z,8.40
2017-12-17T12:11:22.453Z,7.37
2017-12-17T12:13:51.313Z,7.30
2017-12-17T12:16:20.223Z,8.93
2017-12-17T12:18:49.094Z,7.30
2017-12-17T12:21:17.957Z,7.30
2017-12-17T12:23:47.125Z,8.20
2017-12-17T12:26:16.051Z,7.47
2017-12-17T12:28:44.913Z,7.27
2017-12-17T12:31:13.783Z,8.27
2017-12-17T12:33:42.630Z,7.20
2017-12-17T12:36:11.527Z,7.57
2017-12-17T12:38:40.430Z,7.87
2017-12-17T12:41:09.948Z,8.53
2017-12-17T12:43:38.816Z,8.90
2017-12-17T12:46:07.672Z,8.33
2017-12-17T12:48:36.543Z,9.13
2017-12-17T12:51:05.480Z,8.77
2017-12-17T12:53:34.327Z,9.57
2017-12-17T12:56:03.179Z,9.80
2017-12-17T12:58:32.093Z,9.40
2017-12-17T13:01:01.456Z,8.93
2017-12-17T13:03:30.294Z,9.50
2017-12-17T13:05:59.146Z,10.37
2017-12-17T13:08:28.031Z,9.70
2017-12-17T13:10:56.887Z,10.80
2017-12-17T13:13:25.742Z,11.27
2017-12-17T13:15:54.603Z,12.03
2017-12-17T13:18:25.403Z,11.33
2017-12-17T13:20:54.251Z,11.13
2017-12-17T13:23:23.123Z,10.90
2017-12-17T13:25:51.968Z,11.27
2017-12-17T13:28:20.834Z,12.17
2017-12-17T13:30:50.545Z,11.33
2017-12-17T13:33:19.387Z,11.90
2017-12-17T13:35:48.354Z,12.40
2017-12-17T13:38:18.129Z,13.73
2017-12-17T13:40:47.091Z,13.37
2017-12-17T13:43:15.940Z,13.43
2017-12-17T13:45:44.816Z,13.80
2017-12-17T13:48:13.659Z,13.73
2017-12-17T13:50:43.337Z,13.60
2017-12-17T13:53:12.363Z,15.17
2017-12-17T13:55:41.273Z,16.17
2017-12-17T13:58:10.144Z,21.77
2017-12-17T14:00:39.002Z,15.87
2017-12-17T14:03:07.889Z,15.77
2017-12-17T14:05:36.771Z,49.90
2017-12-17T14:08:05.655Z,25.40
2017-12-17T14:10:34.510Z,21.60
2017-12-17T14:13:04.755Z,16.60
2017-12-17T14:15:33.601Z,19.70
2017-12-17T14:18:02.519Z,17.43
2017-12-17T14:20:31.420Z,50.23
2017-12-17T14:23:00.295Z,17.83
2017-12-17T14:25:29.139Z,17.20
2017-12-17T14:27:58.017Z,18.30
2017-12-17T14:30:26.863Z,18.17
2017-12-17T14:32:55.707Z,16.30
2017-12-17T14:35:25.537Z,17.63
2017-12-17T14:37:54.387Z,19.87
2017-12-17T14:40:24.181Z,16.20
2017-12-17T14:42:53.571Z,15.50
2017-12-17T14:45:22.439Z,15.67
2017-12-17T14:47:51.311Z,16.30
2017-12-17T14:50:20.239Z,16.67
2017-12-17T14:52:49.097Z,16.50
2017-12-17T14:55:18.151Z,20.13
2017-12-17T14:57:47.012Z,20.97
2017-12-17T15:00:15.896Z,35.07
2017-12-17T15:02:44.773Z,19.20
2017-12-17T15:05:13.614Z,16.53
2017-12-17T15:07:42.493Z,15.77
2017-12-17T15:10:11.391Z,15.47
2017-12-17T15:12:40.255Z,15.30
2017-12-17T15:15:09.117Z,15.37
2017-12-17T15:17:37.987Z,15.07
2017-12-17T15:20:06.823Z,16.17
2017-12-17T15:22:35.689Z,15.13
2017-12-17T15:25:04.625Z,15.70
2017-12-17T15:27:33.536Z,16.87
2017-12-17T15:30:03.269Z,18.37
2017-12-17T15:32:33.103Z,15.80
2017-12-17T15:35:01.944Z,14.30
2017-12-17T15:37:30.802Z,14.50
2017-12-17T15:39:59.658Z,14.40
2017-12-17T15:42:28.571Z,16.77
2017-12-17T15:44:57.920Z,15.83
2017-12-17T15:47:26.797Z,15.87
2017-12-17T15:49:55.640Z,15.00
2017-12-17T15:52:24.831Z,15.40
2017-12-17T15:54:53.710Z,15.17
2017-12-17T15:57:23.179Z,14.77
2017-12-17T15:59:52.284Z,15.20
2017-12-17T16:02:22.045Z,15.23
2017-12-17T16:04:50.987Z,15.43
2017-12-17T16:07:19.885Z,15.73
2017-12-17T16:09:48.751Z,16.23
2017-12-17T16:12:18.331Z,16.30
2017-12-17T16:14:47.886Z,16.80
2017-12-17T16:17:16.745Z,15.33
2017-12-17T16:19:45.611Z,16.70
2017-12-17T16:22:14.463Z,16.20
2017-12-17T16:24:44.088Z,16.90
2017-12-17T16:27:12.947Z,21.77
2017-12-17T16:29:41.798Z,15.77
2017-12-17T16:32:10.668Z,27.20
2017-12-17T16:34:39.578Z,16.40
2017-12-17T16:37:08.428Z,17.10
2017-12-17T16:39:37.334Z,17.27
2017-12-17T16:42:06.209Z,32.27
2017-12-17T16:44:35.056Z,17.53
2017-12-17T16:47:03.950Z,16.07
2017-12-17T16:49:33.367Z,19.60
2017-12-17T16:52:03.052Z,16.90
2017-12-17T16:54:32.886Z,17.07
2017-12-17T16:57:01.750Z,15.20
2017-12-17T16:59:30.607Z,15.37
2017-12-17T17:01:59.491Z,18.27
2017-12-17T17:04:28.686Z,16.57
2017-12-17T17:06:57.536Z,17.13
2017-12-17T17:09:26.747Z,17.57
2017-12-17T17:11:55.607Z,17.33
2017-12-17T17:14:24.516Z,17.23
2017-12-17T17:16:53.474Z,16.13
2017-12-17T17:19:22.348Z,19.73
2017-12-17T17:21:51.196Z,20.23
2017-12-17T17:24:20.160Z,19.13
2017-12-17T17:26:49.816Z,19.47
2017-12-17T17:29:18.664Z,20.17
2017-12-17T17:31:47.590Z,19.03
2017-12-17T17:34:17.436Z,19.27
2017-12-17T17:36:46.382Z,17.17
2017-12-17T17:39:15.253Z,18.97
2017-12-17T17:41:44.208Z,20.80
2017-12-17T17:44:13.092Z,18.87
2017-12-17T17:46:41.979Z,20.67
2017-12-17T17:49:10.818Z,19.57
2017-12-17T17:51:39.698Z,19.87
2017-12-17T17:54:08.616Z,18.57
2017-12-17T17:56:37.540Z,19.53
2017-12-17T17:59:06.472Z,20.13
2017-12-17T18:01:35.368Z,20.43
2017-12-17T18:04:04.440Z,18.53
2017-12-17T18:06:33.261Z,19.23
2017-12-17T18:09:02.200Z,17.83
2017-12-17T18:11:31.067Z,17.37
2017-12-17T18:14:00.817Z,17.80
2017-12-17T18:16:29.871Z,19.07
2017-12-17T18:18:58.748Z,18.70
2017-12-17T18:21:27.612Z,19.10
2017-12-17T18:23:56.612Z,19.23
2017-12-17T18:26:26.265Z,25.53
2017-12-17T18:28:55.156Z,20.57
2017-12-17T18:31:24.017Z,18.57
2017-12-17T18:33:53.054Z,18.93
2017-12-17T18:36:21.954Z,18.53
2017-12-17T18:38:50.839Z,23.57
2017-12-17T18:41:19.727Z,17.37
2017-12-17T18:43:48.644Z,18.03
2017-12-17T18:46:17.819Z,18.90
2017-12-17T18:48:46.696Z,20.20
2017-12-17T18:51:15.567Z,16.90
2017-12-17T18:53:44.445Z,16.53
2017-12-17T18:56:13.517Z,25.97
2017-12-17T18:58:42.653Z,17.67
2017-12-17T19:01:11.605Z,15.07
2017-12-17T19:03:40.464Z,26.20
2017-12-17T19:06:09.533Z,19.40
2017-12-17T19:08:38.447Z,16.40
2017-12-17T19:11:07.520Z,12.47
2017-12-17T19:13:36.485Z,16.30
2017-12-17T19:16:05.847Z,16.03
2017-12-17T19:18:34.690Z,17.10
2017-12-17T19:21:04.096Z,14.70
2017-12-17T19:23:33.246Z,14.80
2017-12-17T19:26:03.005Z,14.13
2017-12-17T19:28:32.121Z,14.07
2017-12-17T19:31:01.018Z,15.33
2017-12-17T19:33:29.905Z,14.30
2017-12-17T19:35:58.774Z,15.10
2017-12-17T19:38:28.483Z,12.73
2017-12-17T19:41:01.116Z,14.57
2017-12-17T19:43:30.102Z,10.63
2017-12-17T19:45:59.168Z,10.90
2017-12-17T19:48:28.799Z,15.27
2017-12-17T19:50:58.733Z,14.97
2017-12-17T19:53:27.648Z,14.87
2017-12-17T19:55:56.734Z,16.00
2017-12-17T19:58:25.856Z,15.87
2017-12-17T20:00:55.758Z,15.47
2017-12-17T20:03:24.648Z,15.43
2017-12-17T20:05:53.861Z,16.00
2017-12-17T20:08:23.632Z,16.80
2017-12-17T20:10:52.763Z,16.17
2017-12-17T20:13:21.920Z,15.63
2017-12-17T20:15:50.820Z,15.43
2017-12-17T20:18:19.981Z,14.83
2017-12-17T20:20:49.130Z,13.40
2017-12-17T20:23:18.228Z,17.63
2017-12-17T20:25:47.153Z,15.67
2017-12-17T20:28:16.035Z,13.87
2017-12-17T20:30:45.116Z,16.70
2017-12-17T20:33:13.985Z,16.83
2017-12-17T20:35:42.875Z,18.43
2017-12-17T20:38:11.954Z,24.07
2017-12-17T20:40:40.839Z,14.00
2017-12-17T20:43:09.972Z,9.60
2017-12-17T20:45:39.066Z,14.13
2017-12-17T20:48:08.184Z,13.73
2017-12-17T20:50:37.671Z,12.67
2017-12-17T20:53:06.511Z,15.80
2017-12-17T20:55:35.701Z,12.47
2017-12-17T20:58:04.887Z,15.33
2017-12-17T21:00:34.020Z,16.23
2017-12-17T21:03:03.518Z,14.47
2017-12-17T21:05:32.449Z,16.17
2017-12-17T21:08:01.532Z,17.70
2017-12-17T21:10:30.410Z,16.47
2017-12-17T21:12:59.475Z,15.50
2017-12-17T21:15:28.772Z,16.13
2017-12-17T21:17:57.662Z,17.20
2017-12-17T21:20:26.673Z,15.60
2017-12-17T21:22:55.619Z,13.73
2017-12-17T21:25:25.058Z,15.60
2017-12-17T21:27:53.976Z,16.90
2017-12-17T21:30:22.899Z,20.50
2017-12-17T21:32:52.271Z,16.03
2017-12-17T21:35:21.122Z,16.67
2017-12-17T21:37:50.032Z,14.50
2017-12-17T21:40:18.889Z,14.23
2017-12-17T21:42:47.804Z,10.93
2017-12-17T21:45:16.713Z,12.43
2017-12-17T21:47:45.634Z,13.67
2017-12-17T21:50:14.524Z,14.87
2017-12-17T21:52:43.372Z,16.03
2017-12-17T21:55:12.287Z,12.40
2017-12-17T21:57:41.155Z,17.30
2017-12-17T22:00:10.024Z,14.07
2017-12-17T22:02:38.893Z,14.57
2017-12-17T22:05:07.804Z,10.70
2017-12-17T22:07:36.680Z,15.73
2017-12-17T22:10:05.546Z,13.23
2017-12-17T22:12:34.428Z,12.67
2017-12-17T22:15:03.348Z,9.03
2017-12-17T22:17:32.161Z,12.80
2017-12-17T22:20:01.036Z,15.27
2017-12-17T22:22:29.949Z,11.17
2017-12-17T22:24:59.805Z,12.77
2017-12-17T22:27:28.708Z,13.00
2017-12-17T22:29:57.583Z,16.63
2017-12-17T22:32:26.623Z,16.73
2017-12-17T22:34:55.481Z,9.10
2017-12-17T22:37:24.338Z,12.37
2017-12-17T22:39:53.219Z,14.17
2017-12-17T22:42:22.087Z,12.43
2017-12-17T22:44:50.929Z,11.43
2017-12-17T22:47:20.520Z,12.20
2017-12-17T22:49:49.458Z,10.47
2017-12-17T22:52:18.334Z,14.27
2017-12-17T22:54:47.180Z,17.03
2017-12-17T22:57:16.027Z,14.80
2017-12-17T22:59:44.865Z,14.90
2017-12-17T23:02:14.646Z,12.53
2017-12-17T23:04:43.513Z,11.30
2017-12-17T23:07:12.448Z,11.40
2017-12-17T23:09:41.366Z,13.10
2017-12-17T23:12:10.224Z,11.50
2017-12-17T23:14:39.061Z,12.20
2017-12-17T23:17:07.912Z,15.13
2017-12-17T23:19:36.772Z,6.80
2017-12-17T23:22:05.654Z,0.00
2017-12-17T23:24:35.361Z,0.00
2017-12-17T23:27:04.246Z,0.60
2017-12-17T23:29:33.143Z,0.00
2017-12-17T23:32:01.986Z,0.00
2017-12-17T23:34:30.844Z,0.00
2017-12-17T23:36:59.722Z,0.00
2017-12-17T23:39:28.572Z,0.00
2017-12-17T23:41:57.483Z,0.00
2017-12-17T23:44:26.326Z,0.03
2017-12-17T23:46:55.164Z,0.03
2017-12-17T23:49:24.745Z,0.00
2017-12-17T23:51:53.610Z,0.00
2017-12-17T23:54:22.442Z,0.00
2017-12-17T23:56:51.308Z,0.20
2017-12-17T23:59:20.443Z,0.00
